Time;durP1;ratioP1;P1;durP2;ratioP2;P2;SDS_P1;SDS_P2;PMS_P1;PMS_P2;Temp;Humidity;BMP_temperature;BMP_pressure;BME280_temperature;BME280_humidity;BME280_pressure;Samples;Min_cycle;Max_cycle;Signal;HPM_P1;HPM_P2
2023/07/26 00:01:49;;;;;;;7.35;3.60;;;;;;;;;;4992890;28;20478;-78
2023/07/26 00:04:15;;;;;;;8.45;4.38;;;;;;;;;;4991099;28;20068;-79
2023/07/26 00:06:41;;;;;;;8.02;3.90;;;;;;;;;;4991475;28;20042;-79
2023/07/26 00:09:08;;;;;;;8.82;4.13;;;;;;;;;;4991398;28;20563;-79
2023/07/26 00:11:34;;;;;;;9.52;4.40;;;;;;;;;;4991332;28;20058;-78
2023/07/26 00:14:00;;;;;;;7.40;3.83;;;;;;;;;;4991575;28;20038;-78
2023/07/26 00:16:26;;;;;;;7.85;3.95;;;;;;;;;;4991325;28;20534;-79
2023/07/26 00:18:53;;;;;;;5.30;3.75;;;;;;;;;;4975366;28;20415;-78
2023/07/26 00:21:19;;;;;;;5.88;3.92;;;;;;;;;;4990781;28;20050;-78
2023/07/26 00:23:45;;;;;;;6.22;3.45;;;;;;;;;;4995109;28;20077;-79
2023/07/26 00:26:11;;;;;;;7.07;3.58;;;;;;;;;;4994487;28;20046;-79
2023/07/26 00:28:37;;;;;;;6.90;3.17;;;;;;;;;;4995017;28;20129;-78
2023/07/26 00:31:03;;;;;;;5.93;3.60;;;;;;;;;;4979385;28;20042;-78
2023/07/26 00:33:29;;;;;;;5.95;3.70;;;;;;;;;;4995601;28;20054;-78
2023/07/26 00:35:55;;;;;;;8.20;3.60;;;;;;;;;;4994971;28;20034;-78
2023/07/26 00:38:21;;;;;;;7.85;3.55;;;;;;;;;;4994797;28;20460;-79
2023/07/26 00:40:47;;;;;;;5.18;3.15;;;;;;;;;;4994902;28;20046;-78
2023/07/26 00:43:14;;;;;;;6.90;3.45;;;;;;;;;;4995992;28;20161;-79
2023/07/26 00:45:40;;;;;;;4.72;3.17;;;;;;;;;;4995917;28;20121;-78
2023/07/26 00:48:07;;;;;;;6.18;3.33;;;;;;;;;;4995412;28;20121;-79
2023/07/26 00:50:33;;;;;;;6.60;3.00;;;;;;;;;;4994073;28;20046;-78
2023/07/26 00:52:59;;;;;;;6.55;3.22;;;;;;;;;;4994842;28;20053;-78
2023/07/26 00:55:26;;;;;;;6.35;3.30;;;;;;;;;;4994293;28;20038;-78
2023/07/26 00:57:53;;;;;;;5.72;3.33;;;;;;;;;;4978537;28;20038;-78
2023/07/26 01:00:19;;;;;;;6.13;3.15;;;;;;;;;;4994554;28;20535;-78
2023/07/26 01:02:45;;;;;;;6.10;3.00;;;;;;;;;;4995664;28;20043;-79
2023/07/26 01:05:11;;;;;;;8.88;3.47;;;;;;;;;;4994351;28;20053;-78
2023/07/26 01:07:47;;;;;;;4.95;3.40;;;;;;;;;;4994144;28;20138;-78
2023/07/26 01:10:22;;;;;;;5.93;3.33;;;;;;;;;;4994254;28;20526;-78
2023/07/26 01:12:54;;;;;;;5.35;3.30;;;;;;;;;;4994400;28;20042;-78
2023/07/26 01:15:23;;;;;;;6.22;3.28;;;;;;;;;;4993627;28;20093;-78
2023/07/26 01:18:06;;;;;;;5.15;3.17;;;;;;;;;;4996731;28;20070;-78
2023/07/26 01:20:32;;;;;;;9.52;3.30;;;;;;;;;;5012980;28;20116;-79
2023/07/26 01:22:58;;;;;;;6.85;3.03;;;;;;;;;;4997334;28;20046;-78
2023/07/26 01:25:24;;;;;;;7.30;3.05;;;;;;;;;;4980064;28;20468;-78
2023/07/26 01:27:50;;;;;;;6.88;3.25;;;;;;;;;;4974812;28;20395;-79
2023/07/26 01:30:16;;;;;;;5.25;3.00;;;;;;;;;;4981173;28;20164;-79
2023/07/26 01:32:44;;;;;;;6.07;2.97;;;;;;;;;;4996905;28;20038;-79
2023/07/26 01:35:10;;;;;;;6.72;3.00;;;;;;;;;;5013332;28;20042;-79
2023/07/26 01:37:37;;;;;;;4.75;2.90;;;;;;;;;;4981489;28;20125;-79
2023/07/26 01:40:04;;;;;;;6.82;3.67;;;;;;;;;;5014526;28;20042;-79
2023/07/26 01:42:30;;;;;;;7.68;3.50;;;;;;;;;;4996842;28;20407;-79
2023/07/26 01:45:01;;;;;;;5.15;3.28;;;;;;;;;;4997000;28;20145;-79
2023/07/26 01:47:27;;;;;;;4.80;3.15;;;;;;;;;;4996292;28;20076;-79
2023/07/26 01:49:53;;;;;;;5.93;3.33;;;;;;;;;;4997224;28;20046;-79
2023/07/26 01:52:19;;;;;;;4.65;3.10;;;;;;;;;;5014267;28;20038;-79
2023/07/26 01:54:45;;;;;;;6.55;3.35;;;;;;;;;;4996504;28;20403;-79
2023/07/26 01:57:11;;;;;;;6.22;3.20;;;;;;;;;;4996579;28;20038;-79
2023/07/26 01:59:37;;;;;;;6.50;3.30;;;;;;;;;;4996282;28;20038;-79
2023/07/26 02:02:03;;;;;;;5.60;2.97;;;;;;;;;;4991523;28;20046;-79
2023/07/26 02:04:29;;;;;;;9.27;3.60;;;;;;;;;;4994642;28;20052;-79
2023/07/26 02:06:55;;;;;;;5.72;3.80;;;;;;;;;;5013499;28;20198;-79
2023/07/26 02:09:22;;;;;;;7.63;4.13;;;;;;;;;;4996887;28;20129;-79
2023/07/26 02:11:49;;;;;;;5.60;3.47;;;;;;;;;;4996219;28;20054;-79
2023/07/26 02:14:17;;;;;;;6.18;3.45;;;;;;;;;;4996807;28;20053;-79
2023/07/26 02:16:43;;;;;;;6.88;3.53;;;;;;;;;;4995842;28;20038;-79
2023/07/26 02:19:09;;;;;;;6.00;3.63;;;;;;;;;;5013643;28;20046;-78
2023/07/26 02:21:35;;;;;;;7.60;3.80;;;;;;;;;;4995914;28;20128;-79
2023/07/26 02:24:01;;;;;;;8.75;3.95;;;;;;;;;;4979077;28;20372;-78
2023/07/26 02:26:27;;;;;;;6.72;4.10;;;;;;;;;;5013805;28;20042;-78
2023/07/26 02:28:53;;;;;;;7.20;3.60;;;;;;;;;;4979969;28;20125;-79
2023/07/26 02:31:19;;;;;;;7.68;3.65;;;;;;;;;;4978822;28;20042;-79
2023/07/26 02:33:45;;;;;;;5.55;3.67;;;;;;;;;;5013434;28;20084;-78
2023/07/26 02:36:11;;;;;;;8.32;3.50;;;;;;;;;;4995840;28;20046;-79
2023/07/26 02:38:37;;;;;;;5.28;3.72;;;;;;;;;;4995705;28;20048;-79
2023/07/26 02:41:03;;;;;;;6.82;3.80;;;;;;;;;;4980199;28;20521;-79
2023/07/26 02:43:29;;;;;;;6.80;3.65;;;;;;;;;;4995549;28;20042;-79
2023/07/26 02:45:55;;;;;;;5.25;3.50;;;;;;;;;;4995751;28;20197;-78
2023/07/26 02:48:21;;;;;;;6.57;3.70;;;;;;;;;;4995959;28;20100;-79
2023/07/26 02:50:47;;;;;;;6.18;3.25;;;;;;;;;;5012999;28;20042;-79
2023/07/26 02:53:14;;;;;;;5.82;3.80;;;;;;;;;;4995738;28;20048;-79
2023/07/26 02:55:43;;;;;;;5.57;3.67;;;;;;;;;;4995061;28;20080;-79
2023/07/26 02:58:09;;;;;;;7.32;3.55;;;;;;;;;;4995724;28;20037;-79
2023/07/26 03:00:35;;;;;;;7.15;3.53;;;;;;;;;;4995054;28;20034;-79
2023/07/26 03:03:02;;;;;;;5.95;3.67;;;;;;;;;;4995512;28;20077;-79
2023/07/26 03:05:28;;;;;;;8.65;3.50;;;;;;;;;;4995826;28;20120;-79
2023/07/26 03:07:54;;;;;;;7.55;4.00;;;;;;;;;;4995038;28;20046;-79
2023/07/26 03:10:21;;;;;;;5.55;3.50;;;;;;;;;;5013165;28;20068;-79
2023/07/26 03:12:47;;;;;;;6.60;3.17;;;;;;;;;;5012593;28;20088;-79
2023/07/26 03:15:13;;;;;;;6.10;3.70;;;;;;;;;;4968350;28;20034;-78
2023/07/26 03:17:39;;;;;;;5.88;3.38;;;;;;;;;;4994921;28;20391;-78
2023/07/26 03:20:05;;;;;;;9.10;4.45;;;;;;;;;;4995376;28;20171;-79
2023/07/26 03:22:31;;;;;;;7.70;3.67;;;;;;;;;;4995224;28;20622;-79
2023/07/26 03:24:57;;;;;;;5.95;3.53;;;;;;;;;;4994946;28;20050;-79
2023/07/26 03:27:23;;;;;;;4.97;3.35;;;;;;;;;;4977667;28;20042;-79
2023/07/26 03:29:49;;;;;;;5.25;3.40;;;;;;;;;;4994992;28;20049;-78
2023/07/26 03:32:16;;;;;;;5.85;3.70;;;;;;;;;;4995511;28;20034;-79
2023/07/26 03:34:42;;;;;;;4.75;3.30;;;;;;;;;;4994385;28;20041;-79
2023/07/26 03:37:08;;;;;;;6.60;3.72;;;;;;;;;;4995052;28;20062;-78
2023/07/26 03:39:34;;;;;;;7.68;3.90;;;;;;;;;;5012732;28;20077;-79
2023/07/26 03:42:01;;;;;;;7.05;4.15;;;;;;;;;;4995067;28;20045;-79
2023/07/26 03:44:27;;;;;;;8.88;3.67;;;;;;;;;;4994609;28;20133;-79
2023/07/26 03:46:53;;;;;;;6.75;3.38;;;;;;;;;;5011787;28;20042;-79
2023/07/26 03:49:19;;;;;;;7.60;3.92;;;;;;;;;;4994659;28;20042;-79
2023/07/26 03:51:45;;;;;;;6.07;3.75;;;;;;;;;;4994061;28;20065;-79
2023/07/26 03:54:11;;;;;;;6.43;3.42;;;;;;;;;;4994548;28;20033;-79
2023/07/26 03:56:37;;;;;;;5.68;3.72;;;;;;;;;;4994709;28;20561;-79
2023/07/26 03:59:03;;;;;;;7.68;3.90;;;;;;;;;;4993789;28;20038;-79
2023/07/26 04:01:29;;;;;;;5.50;3.92;;;;;;;;;;5011487;28;20038;-79
2023/07/26 04:03:55;;;;;;;6.05;4.15;;;;;;;;;;4993270;28;20046;-79
2023/07/26 04:06:21;;;;;;;7.00;4.40;;;;;;;;;;4977559;28;20046;-79
2023/07/26 04:08:47;;;;;;;7.20;4.68;;;;;;;;;;5011615;28;20053;-79
2023/07/26 04:11:14;;;;;;;7.30;3.85;;;;;;;;;;4994439;28;20117;-79
2023/07/26 04:13:40;;;;;;;8.20;4.22;;;;;;;;;;4994223;28;20065;-79
2023/07/26 04:16:19;;;;;;;6.45;4.35;;;;;;;;;;4974351;28;20046;-79
2023/07/26 04:18:45;;;;;;;5.97;4.22;;;;;;;;;;4980452;28;20054;-79
2023/07/26 04:21:14;;;;;;;8.50;4.50;;;;;;;;;;4994252;28;20049;-79
2023/07/26 04:23:40;;;;;;;7.80;4.40;;;;;;;;;;4994471;28;20054;-79
2023/07/26 04:26:06;;;;;;;9.48;4.47;;;;;;;;;;4978462;28;20078;-79
2023/07/26 04:28:32;;;;;;;6.75;4.15;;;;;;;;;;4994345;28;20042;-79
2023/07/26 04:30:58;;;;;;;14.27;4.70;;;;;;;;;;4994463;28;20491;-79
2023/07/26 04:33:24;;;;;;;15.52;4.97;;;;;;;;;;4994131;28;20407;-79
2023/07/26 04:35:51;;;;;;;12.27;4.53;;;;;;;;;;4978171;28;20447;-79
2023/07/26 04:38:19;;;;;;;12.70;4.53;;;;;;;;;;4978703;28;20394;-79
2023/07/26 04:40:48;;;;;;;15.82;4.90;;;;;;;;;;4993525;28;20076;-79
2023/07/26 04:43:21;;;;;;;7.53;4.15;;;;;;;;;;4994654;28;20511;-79
2023/07/26 04:45:48;;;;;;;7.82;4.80;;;;;;;;;;4977428;28;20050;-79
2023/07/26 04:48:14;;;;;;;13.95;5.20;;;;;;;;;;4994529;28;20045;-79
2023/07/26 04:50:40;;;;;;;12.95;5.18;;;;;;;;;;4978051;28;20053;-79
2023/07/26 04:53:06;;;;;;;9.85;5.00;;;;;;;;;;4993692;28;20046;-78
2023/07/26 04:55:32;;;;;;;7.97;5.15;;;;;;;;;;4994115;28;20125;-78
2023/07/26 04:57:58;;;;;;;22.75;5.40;;;;;;;;;;4993138;28;20081;-77
2023/07/26 05:00:24;;;;;;;12.13;5.55;;;;;;;;;;4992883;28;20038;-77
2023/07/26 05:02:50;;;;;;;10.02;5.55;;;;;;;;;;4993354;28;20081;-78
2023/07/26 05:05:16;;;;;;;7.45;4.90;;;;;;;;;;4976483;28;20045;-78
2023/07/26 05:07:43;;;;;;;9.90;5.70;;;;;;;;;;5011692;28;20042;-79
2023/07/26 05:10:09;;;;;;;8.30;5.25;;;;;;;;;;4969615;28;20380;-78
2023/07/26 05:12:35;;;;;;;9.80;5.40;;;;;;;;;;4981893;28;20064;-78
2023/07/26 05:15:01;;;;;;;11.75;6.30;;;;;;;;;;5014859;28;20084;-78
2023/07/26 05:17:27;;;;;;;9.13;5.93;;;;;;;;;;4972320;28;20057;-78
2023/07/26 05:19:53;;;;;;;10.23;6.45;;;;;;;;;;4993770;28;20550;-78
2023/07/26 05:22:19;;;;;;;10.07;6.15;;;;;;;;;;4976551;28;20070;-79
2023/07/26 05:24:45;;;;;;;12.23;6.65;;;;;;;;;;4994249;28;20053;-78
2023/07/26 05:27:11;;;;;;;9.77;6.35;;;;;;;;;;4993696;28;20085;-78
2023/07/26 05:29:37;;;;;;;8.25;6.07;;;;;;;;;;4974504;28;20558;-78
2023/07/26 05:32:03;;;;;;;9.45;5.80;;;;;;;;;;4992764;28;20491;-79
2023/07/26 05:34:30;;;;;;;10.63;6.30;;;;;;;;;;4993495;28;20073;-78
2023/07/26 05:36:56;;;;;;;10.18;6.43;;;;;;;;;;4977442;28;20088;-79
2023/07/26 05:39:22;;;;;;;9.88;6.18;;;;;;;;;;4978298;28;20487;-79
2023/07/26 05:41:48;;;;;;;12.32;5.93;;;;;;;;;;4993649;28;20121;-79
2023/07/26 05:44:14;;;;;;;10.32;6.60;;;;;;;;;;4992982;28;20089;-79
2023/07/26 05:46:40;;;;;;;8.80;6.05;;;;;;;;;;4977045;28;20034;-78
2023/07/26 05:49:09;;;;;;;9.93;6.18;;;;;;;;;;4994582;28;20049;-78
2023/07/26 05:51:35;;;;;;;7.45;5.35;;;;;;;;;;4993991;28;20494;-79
2023/07/26 05:54:01;;;;;;;8.65;5.50;;;;;;;;;;4993200;28;20042;-78
2023/07/26 05:56:27;;;;;;;8.15;5.45;;;;;;;;;;4976077;28;20039;-79
2023/07/26 05:58:53;;;;;;;7.18;4.40;;;;;;;;;;4994188;28;20551;-79
2023/07/26 06:01:19;;;;;;;7.68;4.47;;;;;;;;;;4993379;28;20045;-79
2023/07/26 06:03:46;;;;;;;7.05;3.90;;;;;;;;;;4993532;28;20051;-79
2023/07/26 06:06:12;;;;;;;6.80;3.75;;;;;;;;;;4994314;28;20046;-79
2023/07/26 06:08:38;;;;;;;5.28;3.65;;;;;;;;;;4992661;28;20080;-79
2023/07/26 06:11:04;;;;;;;5.72;3.50;;;;;;;;;;4992653;28;20042;-79
2023/07/26 06:13:30;;;;;;;4.68;3.38;;;;;;;;;;4993144;28;20046;-79
2023/07/26 06:15:56;;;;;;;5.55;3.20;;;;;;;;;;4993013;28;20053;-79
2023/07/26 06:18:22;;;;;;;4.47;3.42;;;;;;;;;;4993183;28;20411;-78
2023/07/26 06:20:48;;;;;;;4.78;3.20;;;;;;;;;;4993963;28;20060;-79
2023/07/26 06:23:15;;;;;;;7.32;3.50;;;;;;;;;;4975352;28;20057;-78
2023/07/26 06:25:41;;;;;;;5.57;3.60;;;;;;;;;;4994443;28;20072;-78
2023/07/26 06:28:07;;;;;;;7.05;3.80;;;;;;;;;;4992602;28;20045;-78
2023/07/26 06:30:33;;;;;;;6.57;4.03;;;;;;;;;;4992869;28;20125;-78
2023/07/26 06:33:00;;;;;;;8.02;4.85;;;;;;;;;;4982156;28;20051;-79
2023/07/26 06:35:26;;;;;;;5.40;3.83;;;;;;;;;;4990165;28;20042;-78
2023/07/26 06:37:52;;;;;;;5.53;4.05;;;;;;;;;;4993025;28;20050;-78
2023/07/26 06:40:18;;;;;;;7.05;4.40;;;;;;;;;;4992424;28;20108;-78
2023/07/26 06:42:44;;;;;;;6.93;4.45;;;;;;;;;;4976838;28;20554;-78
2023/07/26 06:45:11;;;;;;;7.55;4.63;;;;;;;;;;4993768;28;20513;-77
2023/07/26 06:47:37;;;;;;;15.45;5.43;;;;;;;;;;4992325;28;20483;-77
2023/07/26 06:50:03;;;;;;;10.60;4.28;;;;;;;;;;4991546;28;20117;-77
2023/07/26 06:52:30;;;;;;;10.98;4.80;;;;;;;;;;4991748;28;20129;-78
2023/07/26 06:54:56;;;;;;;16.77;6.00;;;;;;;;;;4987087;28;20593;-78
2023/07/26 06:57:22;;;;;;;26.63;6.10;;;;;;;;;;4991960;28;20042;-78
2023/07/26 06:59:49;;;;;;;8.18;4.78;;;;;;;;;;4992437;28;20050;-78
2023/07/26 07:02:15;;;;;;;9.68;5.60;;;;;;;;;;4992048;28;20042;-78
2023/07/26 07:04:41;;;;;;;9.57;4.85;;;;;;;;;;4991786;28;20078;-78
2023/07/26 07:07:07;;;;;;;8.77;4.65;;;;;;;;;;4980955;28;20479;-78
2023/07/26 07:09:33;;;;;;;11.18;5.80;;;;;;;;;;4993605;28;20050;-78
2023/07/26 07:11:59;;;;;;;9.38;5.70;;;;;;;;;;4992020;28;20125;-78
2023/07/26 07:14:25;;;;;;;7.65;5.38;;;;;;;;;;4991877;28;20491;-78
2023/07/26 07:16:51;;;;;;;7.63;5.20;;;;;;;;;;4991261;28;20459;-78
2023/07/26 07:19:17;;;;;;;5.43;3.70;;;;;;;;;;4990964;28;20109;-78
2023/07/26 07:21:44;;;;;;;5.43;3.03;;;;;;;;;;4992257;28;20537;-78
2023/07/26 07:24:10;;;;;;;4.13;2.50;;;;;;;;;;4975982;28;20565;-78
2023/07/26 07:26:36;;;;;;;3.72;2.08;;;;;;;;;;4991928;28;20101;-78
2023/07/26 07:29:02;;;;;;;2.90;1.60;;;;;;;;;;4973931;28;20042;-79
2023/07/26 07:31:28;;;;;;;2.75;1.30;;;;;;;;;;4989733;28;20042;-79
2023/07/26 07:33:54;;;;;;;4.78;1.40;;;;;;;;;;4967627;28;20050;-79
2023/07/26 07:36:20;;;;;;;3.40;1.30;;;;;;;;;;4997913;28;20633;-79
2023/07/26 07:38:47;;;;;;;3.17;1.20;;;;;;;;;;4979141;28;20459;-79
2023/07/26 07:41:16;;;;;;;3.10;1.35;;;;;;;;;;4980071;28;20043;-79
2023/07/26 07:43:42;;;;;;;3.03;1.52;;;;;;;;;;4991216;28;20096;-77
2023/07/26 07:46:08;;;;;;;2.38;1.20;;;;;;;;;;4991654;28;20495;-76
2023/07/26 07:48:35;;;;;;;4.35;1.38;;;;;;;;;;4989614;28;20392;-76
2023/07/26 07:51:01;;;;;;;2.28;1.30;;;;;;;;;;4982799;28;20065;-79
2023/07/26 07:53:27;;;;;;;2.67;1.30;;;;;;;;;;4991084;28;20109;-79
2023/07/26 07:55:53;;;;;;;2.83;1.38;;;;;;;;;;4986207;28;20041;-79
2023/07/26 07:58:20;;;;;;;4.38;1.30;;;;;;;;;;4991801;28;20380;-79
2023/07/26 08:00:46;;;;;;;3.45;1.30;;;;;;;;;;4993061;28;20070;-79
2023/07/26 08:03:13;;;;;;;3.03;1.30;;;;;;;;;;4990529;28;20057;-79
2023/07/26 08:05:39;;;;;;;2.80;1.27;;;;;;;;;;4991493;28;20043;-79
2023/07/26 08:08:08;;;;;;;3.13;1.40;;;;;;;;;;4998773;28;20066;-79
2023/07/26 08:10:34;;;;;;;3.35;1.33;;;;;;;;;;4989597;28;20042;-79
2023/07/26 08:13:00;;;;;;;3.15;1.20;;;;;;;;;;4993145;28;20117;-79
2023/07/26 08:15:32;;;;;;;4.15;1.65;;;;;;;;;;4990593;28;20039;-80
2023/07/26 08:17:59;;;;;;;3.38;1.27;;;;;;;;;;4983807;28;20062;-79
2023/07/26 08:20:25;;;;;;;4.65;1.58;;;;;;;;;;4993466;28;20457;-77
2023/07/26 08:22:51;;;;;;;5.05;1.60;;;;;;;;;;4994224;28;20054;-77
2023/07/26 08:25:17;;;;;;;3.53;1.55;;;;;;;;;;4993676;28;20053;-77
2023/07/26 08:27:43;;;;;;;2.65;1.30;;;;;;;;;;4993983;28;20046;-79
2023/07/26 08:30:10;;;;;;;4.50;1.75;;;;;;;;;;4993923;28;20391;-79
2023/07/26 08:32:36;;;;;;;2.67;1.55;;;;;;;;;;4993259;28;20495;-80
2023/07/26 08:35:02;;;;;;;3.58;1.67;;;;;;;;;;4993729;28;20034;-79
2023/07/26 08:37:28;;;;;;;2.85;1.55;;;;;;;;;;4993034;28;20161;-79
2023/07/26 08:39:54;;;;;;;3.85;1.40;;;;;;;;;;4993754;28;20388;-79
2023/07/26 08:42:20;;;;;;;2.00;1.40;;;;;;;;;;4993263;28;20360;-80
2023/07/26 08:44:47;;;;;;;4.45;1.55;;;;;;;;;;4976231;28;20054;-80
2023/07/26 08:47:14;;;;;;;4.25;1.70;;;;;;;;;;4981330;28;20033;-80
2023/07/26 08:49:40;;;;;;;3.00;1.60;;;;;;;;;;5012810;28;20037;-79
2023/07/26 08:52:07;;;;;;;4.88;1.80;;;;;;;;;;4978230;28;20046;-80
2023/07/26 08:54:33;;;;;;;4.28;1.70;;;;;;;;;;5012486;28;20059;-80
2023/07/26 08:56:59;;;;;;;2.92;1.70;;;;;;;;;;4995134;28;20045;-79
2023/07/26 08:59:25;;;;;;;3.35;1.80;;;;;;;;;;4996999;28;20501;-79
2023/07/26 09:01:54;;;;;;;4.43;2.00;;;;;;;;;;4994947;28;20514;-79
2023/07/26 09:04:20;;;;;;;3.78;1.80;;;;;;;;;;5015054;28;20117;-79
2023/07/26 09:06:48;;;;;;;4.63;1.95;;;;;;;;;;4995817;28;20037;-80
2023/07/26 09:09:14;;;;;;;4.70;2.13;;;;;;;;;;4994196;28;20565;-79
2023/07/26 09:11:51;;;;;;;5.97;2.30;;;;;;;;;;4995499;28;20467;-80
2023/07/26 09:14:17;;;;;;;3.67;2.30;;;;;;;;;;4995137;28;20435;-80
2023/07/26 09:16:44;;;;;;;3.55;1.90;;;;;;;;;;4992920;28;20038;-79
2023/07/26 09:19:10;;;;;;;3.10;1.88;;;;;;;;;;5010420;28;20038;-79
2023/07/26 09:21:37;;;;;;;3.63;1.83;;;;;;;;;;4990867;28;20408;-80
2023/07/26 09:24:04;;;;;;;3.03;1.77;;;;;;;;;;4994428;28;20050;-79
2023/07/26 09:26:33;;;;;;;3.22;1.70;;;;;;;;;;4993705;28;20046;-79
2023/07/26 09:28:59;;;;;;;3.78;1.85;;;;;;;;;;4993472;28;20522;-78
2023/07/26 09:31:33;;;;;;;3.40;1.90;;;;;;;;;;4992990;28;20042;-78
2023/07/26 09:34:03;;;;;;;3.60;2.20;;;;;;;;;;4994657;28;20039;-77
2023/07/26 09:36:48;;;;;;;3.67;1.75;;;;;;;;;;4993337;28;20050;-78
2023/07/26 09:39:15;;;;;;;2.85;1.98;;;;;;;;;;4988964;28;20500;-78
2023/07/26 09:41:41;;;;;;;3.83;2.15;;;;;;;;;;4994249;28;20176;-78
2023/07/26 09:44:14;;;;;;;4.00;2.10;;;;;;;;;;4978672;28;20042;-78
2023/07/26 09:46:51;;;;;;;4.30;2.28;;;;;;;;;;4976050;28;20053;-78
2023/07/26 09:49:17;;;;;;;4.47;2.03;;;;;;;;;;4992678;28;20049;-78
2023/07/26 09:51:43;;;;;;;3.53;1.88;;;;;;;;;;4992941;28;20047;-78
2023/07/26 09:54:13;;;;;;;3.47;1.70;;;;;;;;;;4972959;28;20495;-78
2023/07/26 09:56:41;;;;;;;3.08;1.48;;;;;;;;;;4983219;28;20045;-78
2023/07/26 09:59:11;;;;;;;4.88;1.92;;;;;;;;;;4992432;28;20045;-81
2023/07/26 10:01:39;;;;;;;3.30;1.80;;;;;;;;;;4992458;28;20042;-79
2023/07/26 10:04:06;;;;;;;3.42;1.83;;;;;;;;;;4991278;28;20038;-79
2023/07/26 10:06:33;;;;;;;3.15;1.80;;;;;;;;;;4993934;28;20042;-80
2023/07/26 10:09:00;;;;;;;5.00;1.90;;;;;;;;;;4993054;28;20496;-79
2023/07/26 10:11:28;;;;;;;3.80;1.80;;;;;;;;;;4993140;28;20522;-80
2023/07/26 10:13:54;;;;;;;3.33;1.88;;;;;;;;;;4972780;28;20046;-78
2023/07/26 10:16:20;;;;;;;4.22;2.15;;;;;;;;;;4992563;28;20488;-79
2023/07/26 10:18:48;;;;;;;6.13;2.30;;;;;;;;;;4992515;28;20065;-79
2023/07/26 10:21:14;;;;;;;6.53;2.15;;;;;;;;;;5004341;28;20078;-79
2023/07/26 10:23:43;;;;;;;5.22;2.30;;;;;;;;;;4995250;28;20054;-79
2023/07/26 10:26:11;;;;;;;8.35;2.88;;;;;;;;;;4996029;28;20503;-79
2023/07/26 10:28:38;;;;;;;9.80;3.20;;;;;;;;;;4979059;28;20442;-79
2023/07/26 10:31:04;;;;;;;6.25;2.97;;;;;;;;;;4994432;28;20483;-79
2023/07/26 10:33:30;;;;;;;16.33;3.42;;;;;;;;;;5008136;28;20038;-79
2023/07/26 10:35:56;;;;;;;12.57;3.55;;;;;;;;;;4993156;28;20091;-78
2023/07/26 10:38:22;;;;;;;14.38;3.65;;;;;;;;;;4995505;28;20406;-78
2023/07/26 10:40:49;;;;;;;9.00;3.30;;;;;;;;;;5010989;28;20037;-78
2023/07/26 10:43:19;;;;;;;5.55;2.65;;;;;;;;;;4995739;28;20042;-79
2023/07/26 10:45:45;;;;;;;6.05;3.25;;;;;;;;;;4995129;28;20140;-79
2023/07/26 10:48:23;;;;;;;4.18;2.35;;;;;;;;;;4979042;28;20046;-79
2023/07/26 10:50:50;;;;;;;4.18;2.70;;;;;;;;;;4984413;28;20077;-80
2023/07/26 10:53:39;;;;;;;3.85;2.13;;;;;;;;;;4989008;28;20197;-79
2023/07/26 10:56:09;;;;;;;4.22;2.03;;;;;;;;;;5011105;28;20135;-79
2023/07/26 10:58:35;;;;;;;2.70;1.45;;;;;;;;;;4977928;28;20034;-79
2023/07/26 11:01:04;;;;;;;2.33;1.38;;;;;;;;;;4979183;28;20042;-79
2023/07/26 11:03:30;;;;;;;2.53;1.13;;;;;;;;;;4995746;28;20038;-79
2023/07/26 11:05:57;;;;;;;1.83;0.95;;;;;;;;;;4995339;28;20608;-78
2023/07/26 11:08:47;;;;;;;1.70;0.90;;;;;;;;;;4995365;28;20045;-79
2023/07/26 11:11:17;;;;;;;2.08;0.90;;;;;;;;;;4995050;28;20072;-79
2023/07/26 11:13:44;;;;;;;1.90;1.10;;;;;;;;;;5012017;28;20053;-78
2023/07/26 11:16:10;;;;;;;3.25;0.95;;;;;;;;;;4995052;28;20040;-79
2023/07/26 11:18:40;;;;;;;2.40;1.10;;;;;;;;;;4993604;28;20042;-76
2023/07/26 11:21:06;;;;;;;4.20;1.52;;;;;;;;;;5011818;28;20152;-77
2023/07/26 11:23:32;;;;;;;4.40;1.98;;;;;;;;;;4993789;28;20048;-76
2023/07/26 11:25:59;;;;;;;3.88;1.70;;;;;;;;;;5012318;28;20497;-77
2023/07/26 11:28:29;;;;;;;3.30;1.40;;;;;;;;;;5002979;28;20113;-78
2023/07/26 11:30:56;;;;;;;3.13;1.50;;;;;;;;;;4990479;28;20044;-79
2023/07/26 11:33:26;;;;;;;2.67;1.48;;;;;;;;;;5011505;28;20045;-79
2023/07/26 11:35:52;;;;;;;2.67;1.40;;;;;;;;;;4986912;28;20038;-77
2023/07/26 11:38:18;;;;;;;2.08;1.23;;;;;;;;;;5012426;28;20132;-79
2023/07/26 11:40:45;;;;;;;3.70;1.40;;;;;;;;;;4994572;28;20049;-81
2023/07/26 11:43:12;;;;;;;3.28;1.40;;;;;;;;;;4994721;28;20034;-80
2023/07/26 11:45:38;;;;;;;3.28;1.50;;;;;;;;;;4991227;28;20046;-79
2023/07/26 11:48:11;;;;;;;18.70;1.90;;;;;;;;;;4994950;28;20042;-79
2023/07/26 11:50:37;;;;;;;3.88;1.60;;;;;;;;;;4993605;28;20054;-79
2023/07/26 11:53:08;;;;;;;2.47;1.60;;;;;;;;;;4994499;28;20057;-79
2023/07/26 11:55:35;;;;;;;4.07;2.20;;;;;;;;;;4994128;28;20124;-84
2023/07/26 11:58:04;;;;;;;5.53;2.00;;;;;;;;;;5011795;28;20048;-84
2023/07/26 12:00:34;;;;;;;6.80;2.45;;;;;;;;;;4994341;28;20495;-84
2023/07/26 12:03:02;;;;;;;4.75;2.50;;;;;;;;;;4993795;28;20116;-83
2023/07/26 12:05:28;;;;;;;8.75;2.60;;;;;;;;;;4994171;28;20509;-83
2023/07/26 12:07:56;;;;;;;5.18;2.60;;;;;;;;;;4993640;28;20046;-84
2023/07/26 12:10:33;;;;;;;6.55;3.00;;;;;;;;;;4994119;28;20044;-84
2023/07/26 12:13:00;;;;;;;7.60;2.80;;;;;;;;;;4995068;28;20588;-83
2023/07/26 12:15:26;;;;;;;6.95;2.90;;;;;;;;;;5010387;28;20046;-84
2023/07/26 12:17:55;;;;;;;4.82;3.35;;;;;;;;;;4995131;28;20034;-84
2023/07/26 12:20:25;;;;;;;6.85;3.20;;;;;;;;;;4982144;28;20038;-83
2023/07/26 12:22:52;;;;;;;7.28;3.42;;;;;;;;;;4981514;28;20057;-83
2023/07/26 12:25:19;;;;;;;8.52;3.15;;;;;;;;;;4998147;28;20037;-83
2023/07/26 12:27:47;;;;;;;6.40;3.00;;;;;;;;;;4981497;28;20121;-83
2023/07/26 12:30:14;;;;;;;6.90;2.92;;;;;;;;;;4998227;28;20403;-83
2023/07/26 12:32:40;;;;;;;7.13;3.33;;;;;;;;;;4997493;28;20084;-83
2023/07/26 12:35:20;;;;;;;7.13;2.72;;;;;;;;;;4997777;28;20042;-80
2023/07/26 12:37:46;;;;;;;6.30;2.95;;;;;;;;;;4997063;28;20045;-80
2023/07/26 12:40:12;;;;;;;6.20;2.80;;;;;;;;;;5015812;28;20559;-80
2023/07/26 12:42:38;;;;;;;6.95;3.08;;;;;;;;;;4997929;28;20100;-80
2023/07/26 12:45:04;;;;;;;6.90;3.10;;;;;;;;;;5015653;28;20060;-81
2023/07/26 12:47:31;;;;;;;6.35;2.88;;;;;;;;;;4997453;28;20033;-81
2023/07/26 12:49:57;;;;;;;5.57;2.92;;;;;;;;;;4997767;28;20056;-81
2023/07/26 12:52:23;;;;;;;6.30;2.63;;;;;;;;;;4997632;28;20076;-81
2023/07/26 12:54:49;;;;;;;6.07;2.22;;;;;;;;;;4997459;28;20494;-80
2023/07/26 12:57:15;;;;;;;5.03;2.10;;;;;;;;;;4979103;28;20045;-81
2023/07/26 12:59:42;;;;;;;5.32;2.40;;;;;;;;;;4997620;28;20037;-81
2023/07/26 13:02:08;;;;;;;6.05;2.30;;;;;;;;;;4997558;28;20092;-81
2023/07/26 13:04:34;;;;;;;7.20;2.40;;;;;;;;;;4998813;28;20069;-81
2023/07/26 13:07:00;;;;;;;5.60;2.10;;;;;;;;;;5009284;28;20049;-81
2023/07/26 13:09:26;;;;;;;6.03;2.38;;;;;;;;;;4996937;28;20037;-80
2023/07/26 13:11:52;;;;;;;4.43;2.28;;;;;;;;;;4995331;28;20068;-80
2023/07/26 13:14:18;;;;;;;5.53;2.40;;;;;;;;;;5013262;28;20113;-81
2023/07/26 13:16:46;;;;;;;4.38;2.20;;;;;;;;;;5013650;28;20116;-80
2023/07/26 13:19:12;;;;;;;4.68;1.95;;;;;;;;;;4989033;28;20042;-80
2023/07/26 13:21:38;;;;;;;6.90;2.35;;;;;;;;;;4977300;28;20114;-80
2023/07/26 13:24:05;;;;;;;5.63;2.40;;;;;;;;;;4982025;28;20046;-81
2023/07/26 13:26:31;;;;;;;5.60;2.50;;;;;;;;;;4979553;28;20048;-80
2023/07/26 13:28:57;;;;;;;8.55;2.55;;;;;;;;;;4989123;28;20494;-81
2023/07/26 13:31:23;;;;;;;7.20;2.45;;;;;;;;;;4995364;28;20468;-80
2023/07/26 13:33:49;;;;;;;5.10;2.65;;;;;;;;;;4964973;28;20034;-81
2023/07/26 13:36:18;;;;;;;5.45;2.45;;;;;;;;;;4997275;28;20487;-80
2023/07/26 13:38:44;;;;;;;4.88;2.35;;;;;;;;;;4996889;28;20045;-81
2023/07/26 13:41:10;;;;;;;4.63;2.50;;;;;;;;;;4980060;28;20140;-81
2023/07/26 13:43:36;;;;;;;6.40;2.20;;;;;;;;;;4997026;28;20037;-81
2023/07/26 13:46:02;;;;;;;5.53;2.00;;;;;;;;;;4996545;28;20045;-81
2023/07/26 13:48:28;;;;;;;5.22;1.95;;;;;;;;;;4993835;28;20585;-80
2023/07/26 13:50:54;;;;;;;4.90;2.20;;;;;;;;;;4994063;28;20046;-82
2023/07/26 13:53:20;;;;;;;6.82;2.33;;;;;;;;;;5013444;28;20121;-80
2023/07/26 13:55:46;;;;;;;5.03;2.25;;;;;;;;;;4991177;28;20321;-81
2023/07/26 13:58:12;;;;;;;3.78;2.10;;;;;;;;;;4995885;28;20479;-81
2023/07/26 14:00:39;;;;;;;5.63;2.35;;;;;;;;;;4998185;28;20141;-80
2023/07/26 14:03:05;;;;;;;5.72;2.00;;;;;;;;;;4984776;28;20426;-80
2023/07/26 14:05:31;;;;;;;6.07;2.50;;;;;;;;;;4974314;28;20100;-79
2023/07/26 14:07:57;;;;;;;6.60;2.22;;;;;;;;;;5026642;28;20410;-77
2023/07/26 14:10:24;;;;;;;4.30;2.53;;;;;;;;;;4996670;28;20030;-80
2023/07/26 14:12:50;;;;;;;5.78;2.50;;;;;;;;;;4996603;28;20045;-80
2023/07/26 14:15:16;;;;;;;5.45;2.58;;;;;;;;;;4995785;28;20040;-84
2023/07/26 14:17:42;;;;;;;11.00;2.72;;;;;;;;;;4996303;28;20548;-82
2023/07/26 14:20:08;;;;;;;7.70;2.60;;;;;;;;;;4996152;28;20386;-82
2023/07/26 14:22:34;;;;;;;6.57;2.47;;;;;;;;;;4980091;28;20502;-81
2023/07/26 14:25:00;;;;;;;8.32;3.00;;;;;;;;;;5012352;28;20050;-80
2023/07/26 14:27:27;;;;;;;8.32;3.45;;;;;;;;;;4995076;28;20410;-81
2023/07/26 14:29:53;;;;;;;5.45;2.53;;;;;;;;;;4995717;28;20479;-82
2023/07/26 14:32:19;;;;;;;5.05;2.30;;;;;;;;;;5012328;28;20073;-85
2023/07/26 14:34:45;;;;;;;6.28;3.05;;;;;;;;;;4995475;28;20041;-80
2023/07/26 14:37:11;;;;;;;6.80;2.92;;;;;;;;;;4978959;28;20046;-81
2023/07/26 14:39:37;;;;;;;8.68;2.75;;;;;;;;;;4992487;28;20038;-80
2023/07/26 14:42:03;;;;;;;6.75;3.20;;;;;;;;;;5006943;28;20077;-80